createdAt,value
2019-04-10T00:00:02.431Z,808.14
2019-04-10T00:00:08.685Z,808.18
2019-04-10T00:00:14.732Z,808.12
2019-04-10T00:00:21.012Z,808.18
2019-04-10T00:00:26.497Z,808.16
2019-04-10T00:00:32.124Z,808.16
2019-04-10T00:00:39.105Z,808.16
2019-04-10T00:00:47.734Z,808.17
2019-04-10T00:00:55.082Z,808.16
2019-04-10T00:01:00.061Z,808.2
2019-04-10T00:01:12.931Z,808.21
2019-04-10T00:01:20.542Z,808.21
2019-04-10T00:01:26.508Z,808.2
2019-04-10T00:01:34.095Z,808.22
2019-04-10T00:01:40.521Z,808.16
2019-04-10T00:01:46.167Z,808.21
2019-04-10T00:01:51.801Z,808.16
2019-04-10T00:01:59.364Z,808.18
2019-04-10T00:02:04.936Z,808.22
2019-04-10T00:02:11.253Z,808.17
2019-04-10T00:02:17.532Z,808.17
2019-04-10T00:02:23.777Z,808.18
2019-04-10T00:02:30.039Z,808.19
2019-04-10T00:02:35.588Z,808.19
2019-04-10T00:02:41.748Z,808.16
2019-04-10T00:02:47.967Z,808.16
2019-04-10T00:02:53.564Z,808.15
2019-04-10T00:02:59.287Z,808.12
2019-04-10T00:03:06.127Z,808.14
2019-04-10T00:03:40.717Z,808.16
2019-04-10T00:03:50.266Z,808.13
2019-04-10T00:03:55.303Z,808.18
2019-04-10T00:04:02.888Z,808.18
2019-04-10T00:04:08.652Z,808.18
2019-04-10T00:04:15.451Z,808.1
2019-04-10T00:04:21.063Z,808.14
2019-04-10T00:04:27.970Z,808.16
2019-04-10T00:04:35.538Z,808.15
2019-04-10T00:04:41.248Z,808.16
2019-04-10T00:04:47.372Z,808.19
2019-04-10T00:04:53.607Z,808.14
2019-04-10T00:04:59.900Z,808.13
2019-04-10T00:05:05.581Z,808.16
2019-04-10T00:05:11.720Z,808.14
2019-04-10T00:05:17.917Z,808.16
2019-04-10T00:05:23.456Z,808.15
2019-04-10T00:05:29.227Z,808.15
2019-04-10T00:05:34.666Z,808.14
2019-04-10T00:05:44.422Z,808.16
2019-04-10T00:05:51.998Z,808.12
2019-04-10T00:05:58.341Z,808.14
2019-04-10T00:06:05.341Z,808.12
2019-04-10T00:06:13.049Z,808.11
2019-04-10T00:06:23.635Z,808.15
2019-04-10T00:06:29.877Z,808.08
2019-04-10T00:06:35.558Z,808.1
2019-04-10T00:06:42.443Z,808.11
2019-04-10T00:06:47.952Z,808.07
2019-04-10T00:06:54.218Z,808.12
2019-04-10T00:07:24.271Z,808.06
2019-04-10T00:07:29.943Z,808.13
2019-04-10T00:07:35.442Z,808.05
2019-04-10T00:07:41.672Z,808.04
2019-04-10T00:07:48.766Z,808.03
2019-04-10T00:07:55.473Z,807.99
2019-04-10T00:08:00.539Z,808.05
2019-04-10T00:08:08.042Z,808.06
2019-04-10T00:08:14.288Z,808.04
2019-04-10T00:08:19.795Z,808.03
2019-04-10T00:08:24.902Z,808.02
2019-04-10T00:08:31.147Z,808.05
2019-04-10T00:08:37.391Z,808.07
2019-04-10T00:08:43.906Z,808.05
2019-04-10T00:08:49.300Z,808.07
2019-04-10T00:08:56.732Z,808.06
2019-04-10T00:09:02.964Z,808.04
2019-04-10T00:09:08.466Z,808.02
2019-04-10T00:09:13.593Z,808.05
2019-04-10T00:09:19.785Z,808.03
2019-04-10T00:09:26.066Z,808.04
2019-04-10T00:09:31.527Z,808.02
2019-04-10T00:09:37.152Z,808.03
2019-04-10T00:09:43.361Z,808.03
2019-04-10T00:09:49.541Z,808.01
2019-04-10T00:09:55.114Z,807.99
2019-04-10T00:10:01.495Z,808.02
2019-04-10T00:10:07.719Z,808.02
2019-04-10T00:10:13.879Z,808.01
2019-04-10T00:10:19.382Z,808.03
2019-04-10T00:10:25.119Z,807.99
2019-04-10T00:10:30.734Z,807.99
2019-04-10T00:10:38.218Z,807.99
2019-04-10T00:10:43.743Z,808
2019-04-10T00:10:49.455Z,807.99
2019-04-10T00:10:56.262Z,807.98
2019-04-10T00:11:04.629Z,807.95
2019-04-10T00:11:10.926Z,807.94
2019-04-10T00:11:16.543Z,807.93
2019-04-10T00:11:22.774Z,807.92
2019-04-10T00:11:29.809Z,807.93
2019-04-10T00:11:35.361Z,807.94
2019-04-10T00:11:40.963Z,807.94
2019-04-10T00:11:47.991Z,807.94
2019-04-10T00:11:54.273Z,807.94
2019-04-10T00:11:59.777Z,807.95
2019-04-10T00:12:05.304Z,807.92
2019-04-10T00:12:11.626Z,807.93
2019-04-10T00:12:17.718Z,807.9
2019-04-10T00:12:23.319Z,807.92
2019-04-10T00:12:28.417Z,807.91
2019-04-10T00:12:34.601Z,807.93
2019-04-10T00:12:43.103Z,807.87
2019-04-10T00:12:49.763Z,807.93
2019-04-10T00:12:54.933Z,807.91
2019-04-10T00:13:02.365Z,807.9
2019-04-10T00:13:08.230Z,807.91
2019-04-10T00:13:15.007Z,807.9
2019-04-10T00:13:20.556Z,807.88
2019-04-10T00:13:26.761Z,807.9
2019-04-10T00:13:32.447Z,807.89
2019-04-10T00:13:38.524Z,807.89
2019-04-10T00:13:44.727Z,807.9
2019-04-10T00:13:51.114Z,807.89
2019-04-10T00:13:56.844Z,807.88
2019-04-10T00:14:03.751Z,807.83
2019-04-10T00:14:10.230Z,807.79
2019-04-10T00:14:16.417Z,807.84
2019-04-10T00:14:22.017Z,807.78
2019-04-10T00:14:28.229Z,807.83
2019-04-10T00:14:33.218Z,807.81
2019-04-10T00:14:39.485Z,807.79
2019-04-10T00:14:45.792Z,807.81
2019-04-10T00:14:52.530Z,807.8
2019-04-10T00:14:57.552Z,807.79
2019-04-10T00:15:03.898Z,807.8
2019-04-10T00:15:10.063Z,807.76
2019-04-10T00:15:19.588Z,807.77
2019-04-10T00:15:27.106Z,807.72
2019-04-10T00:15:34.705Z,807.76
2019-04-10T00:15:42.260Z,807.72
2019-04-10T00:15:47.305Z,807.67
2019-04-10T00:15:55.606Z,807.73
2019-04-10T00:16:02.066Z,807.72
2019-04-10T00:16:09.141Z,807.69
2019-04-10T00:16:14.617Z,807.72
2019-04-10T00:16:22.392Z,807.75
2019-04-10T00:16:29.862Z,807.74
2019-04-10T00:16:34.893Z,807.71
2019-04-10T00:16:42.276Z,807.71
2019-04-10T00:16:48.811Z,807.69
2019-04-10T00:16:56.181Z,807.71
2019-04-10T00:17:01.292Z,807.7
2019-04-10T00:17:08.911Z,807.67
2019-04-10T00:17:15.213Z,807.68
2019-04-10T00:17:21.533Z,807.71
2019-04-10T00:17:27.004Z,807.68
2019-04-10T00:17:33.921Z,807.65
2019-04-10T00:17:40.853Z,807.65
2019-04-10T00:17:46.598Z,807.61
2019-04-10T00:17:53.321Z,807.69
2019-04-10T00:17:59.810Z,807.63
2019-04-10T00:18:06.057Z,807.68
2019-04-10T00:18:11.659Z,807.68
2019-04-10T00:18:19.946Z,807.66
2019-04-10T00:18:27.110Z,807.64
2019-04-10T00:18:33.762Z,807.66
2019-04-10T00:18:38.776Z,807.67
2019-04-10T00:18:45.100Z,807.66
2019-04-10T00:18:51.332Z,807.65
2019-04-10T00:18:58.124Z,807.66
2019-04-10T00:19:03.174Z,807.6
2019-04-10T00:19:10.612Z,807.64
2019-04-10T00:19:16.343Z,807.66
2019-04-10T00:19:22.438Z,807.62
2019-04-10T00:19:27.498Z,807.65
2019-04-10T00:19:33.672Z,807.63
2019-04-10T00:19:40.822Z,807.65
2019-04-10T00:19:47.680Z,807.63
2019-04-10T00:19:52.724Z,807.62
2019-04-10T00:19:58.873Z,807.63
2019-04-10T00:20:05.123Z,807.63
2019-04-10T00:20:10.723Z,807.64
2019-04-10T00:20:16.266Z,807.63
2019-04-10T00:20:22.517Z,807.61
2019-04-10T00:20:28.784Z,807.65
2019-04-10T00:20:36.406Z,807.65
2019-04-10T00:20:41.435Z,807.63
2019-04-10T00:20:49.057Z,807.65
2019-04-10T00:20:56.605Z,807.55
2019-04-10T00:21:02.546Z,807.63
2019-04-10T00:21:09.103Z,807.65
2019-04-10T00:21:17.441Z,807.59
2019-04-10T00:21:23.686Z,807.58
2019-04-10T00:21:29.756Z,807.62
2019-04-10T00:21:36.321Z,807.6
2019-04-10T00:21:42.600Z,807.59
2019-04-10T00:21:48.150Z,807.57
2019-04-10T00:21:53.568Z,807.61
2019-04-10T00:21:59.796Z,807.59
2019-04-10T00:22:07.712Z,807.57
2019-04-10T00:22:14.964Z,807.51
2019-04-10T00:22:20.893Z,807.59
2019-04-10T00:22:27.120Z,807.56
2019-04-10T00:22:32.700Z,807.54
2019-04-10T00:22:38.962Z,807.51
2019-04-10T00:22:44.486Z,807.55
2019-04-10T00:22:50.657Z,807.54
2019-04-10T00:22:56.357Z,807.55
2019-04-10T00:23:02.497Z,807.51
2019-04-10T00:23:07.610Z,807.57
2019-04-10T00:23:15.082Z,807.52
2019-04-10T00:23:21.438Z,807.56
2019-04-10T00:23:27.581Z,807.52
2019-04-10T00:23:33.185Z,807.56
2019-04-10T00:23:39.443Z,807.54
2019-04-10T00:23:45.200Z,807.54
2019-04-10T00:23:52.096Z,807.49
2019-04-10T00:23:57.667Z,807.53
2019-04-10T00:24:04.626Z,807.53
2019-04-10T00:24:11.465Z,807.52
2019-04-10T00:24:17.014Z,807.51
2019-04-10T00:24:22.749Z,807.51
2019-04-10T00:24:28.933Z,807.53
2019-04-10T00:24:34.515Z,807.51
2019-04-10T00:24:40.678Z,807.52
2019-04-10T00:24:46.240Z,807.5
2019-04-10T00:24:52.452Z,807.55
2019-04-10T00:24:58.126Z,807.53
2019-04-10T00:25:05.040Z,807.52
2019-04-10T00:25:10.694Z,807.53
2019-04-10T00:25:17.599Z,807.52
2019-04-10T00:25:23.019Z,807.51
2019-04-10T00:25:29.375Z,807.51
2019-04-10T00:25:34.971Z,807.51
2019-04-10T00:25:41.976Z,807.5
2019-04-10T00:25:48.761Z,807.52
2019-04-10T00:25:54.545Z,807.5
2019-04-10T00:26:00.137Z,807.47
2019-04-10T00:26:08.498Z,807.45
2019-04-10T00:26:15.236Z,807.52
2019-04-10T00:26:20.350Z,807.48
2019-04-10T00:26:26.569Z,807.45
2019-04-10T00:26:32.780Z,807.51
2019-04-10T00:26:38.299Z,807.52
2019-04-10T00:26:43.899Z,807.47
2019-04-10T00:26:50.087Z,807.51
2019-04-10T00:26:56.391Z,807.51
2019-04-10T00:27:02.031Z,807.48
2019-04-10T00:27:08.349Z,807.51
2019-04-10T00:27:14.523Z,807.45
2019-04-10T00:27:20.707Z,807.46
2019-04-10T00:27:26.245Z,807.5
2019-04-10T00:27:31.937Z,807.55
2019-04-10T00:27:37.598Z,807.47
2019-04-10T00:27:44.882Z,807.5
2019-04-10T00:27:50.708Z,807.47
2019-04-10T00:27:56.358Z,807.52
2019-04-10T00:28:02.933Z,807.48
2019-04-10T00:28:11.494Z,807.5
2019-04-10T00:28:17.033Z,807.5
2019-04-10T00:28:22.058Z,807.5
2019-04-10T00:28:29.630Z,807.54
2019-04-10T00:28:36.635Z,807.53
2019-04-10T00:28:43.566Z,807.53
2019-04-10T00:28:49.739Z,807.52
2019-04-10T00:28:56.006Z,807.5
2019-04-10T00:29:01.729Z,807.48
2019-04-10T00:29:08.562Z,807.49
2019-04-10T00:29:14.126Z,807.54
2019-04-10T00:29:20.299Z,807.51
2019-04-10T00:29:26.048Z,807.5
2019-04-10T00:29:32.879Z,807.51
2019-04-10T00:29:38.369Z,807.52
2019-04-10T00:29:44.660Z,807.52
2019-04-10T00:29:50.287Z,807.51
2019-04-10T00:29:56.463Z,807.47
2019-04-10T00:30:01.450Z,807.44
2019-04-10T00:30:09.059Z,807.49
2019-04-10T00:30:14.578Z,807.46
2019-04-10T00:30:20.753Z,807.48
2019-04-10T00:30:25.860Z,807.42
2019-04-10T00:30:32.058Z,807.46
2019-04-10T00:30:38.368Z,807.47
2019-04-10T00:30:45.064Z,807.46
2019-04-10T00:30:50.192Z,807.5
2019-04-10T00:30:56.443Z,807.52
2019-04-10T00:31:02.727Z,807.49
2019-04-10T00:31:09.453Z,807.5
2019-04-10T00:31:14.575Z,807.51
2019-04-10T00:31:20.737Z,807.51
2019-04-10T00:31:29.685Z,807.49
2019-04-10T00:31:35.334Z,807.5
2019-04-10T00:31:41.008Z,807.5
2019-04-10T00:31:47.389Z,807.49
2019-04-10T00:31:54.201Z,807.51
2019-04-10T00:32:05.484Z,807.49
2019-04-10T00:32:11.913Z,807.51
2019-04-10T00:32:17.549Z,807.49
2019-04-10T00:32:23.732Z,807.52
2019-04-10T00:32:29.950Z,807.46
2019-04-10T00:32:36.233Z,807.51
2019-04-10T00:32:41.863Z,807.53
2019-04-10T00:32:48.054Z,807.53
2019-04-10T00:32:53.082Z,807.53
2019-04-10T00:33:00.535Z,807.51
2019-04-10T00:33:06.210Z,807.52
2019-04-10T00:33:12.278Z,807.54
2019-04-10T00:33:17.403Z,807.56
2019-04-10T00:33:24.920Z,807.52
2019-04-10T00:33:30.584Z,807.52
2019-04-10T00:33:37.526Z,807.56
2019-04-10T00:33:44.926Z,807.52
2019-04-10T00:33:51.359Z,807.51
2019-04-10T00:33:57.702Z,807.54
2019-04-10T00:34:03.296Z,807.54
2019-04-10T00:34:10.226Z,807.54
2019-04-10T00:34:16.449Z,807.54
2019-04-10T00:34:23.277Z,807.54
2019-04-10T00:34:28.325Z,807.53
2019-04-10T00:34:35.811Z,807.55
2019-04-10T00:34:42.043Z,807.57
2019-04-10T00:34:47.655Z,807.58
2019-04-10T00:34:52.698Z,807.55
2019-04-10T00:35:00.162Z,807.5
2019-04-10T00:35:07.291Z,807.57
2019-04-10T00:35:12.911Z,807.58
2019-04-10T00:35:17.973Z,807.55
2019-04-10T00:35:25.535Z,807.57
2019-04-10T00:35:32.490Z,807.54
2019-04-10T00:35:39.353Z,807.52
2019-04-10T00:35:46.426Z,807.58
2019-04-10T00:35:53.973Z,807.55
2019-04-10T00:35:59.489Z,807.54
2019-04-10T00:36:05.461Z,807.55
2019-04-10T00:36:14.077Z,807.55
2019-04-10T00:36:20.302Z,807.57
2019-04-10T00:36:25.544Z,807.56
2019-04-10T00:36:31.132Z,807.56
2019-04-10T00:36:37.327Z,807.55
2019-04-10T00:36:43.581Z,807.56
2019-04-10T00:36:49.053Z,807.48
2019-04-10T00:36:55.542Z,807.53
2019-04-10T00:37:01.744Z,807.56
2019-04-10T00:37:19.010Z,807.57
2019-04-10T00:37:37.348Z,807.51
2019-04-10T00:37:42.855Z,807.54
2019-04-10T00:37:47.884Z,807.56
2019-04-10T00:37:54.230Z,807.53
2019-04-10T00:38:01.685Z,807.55
2019-04-10T00:38:07.970Z,807.56
2019-04-10T00:38:13.568Z,807.51
2019-04-10T00:38:19.807Z,807.54
2019-04-10T00:38:26.073Z,807.56
2019-04-10T00:38:31.531Z,807.55
2019-04-10T00:38:36.660Z,807.57
2019-04-10T00:38:42.921Z,807.56
2019-04-10T00:38:49.084Z,807.55
2019-04-10T00:38:54.687Z,807.57
2019-04-10T00:39:00.231Z,807.56
2019-04-10T00:39:06.417Z,807.56
2019-04-10T00:39:12.612Z,807.58
2019-04-10T00:39:18.052Z,807.56
2019-04-10T00:39:23.829Z,807.55
2019-04-10T00:39:30.614Z,807.58
2019-04-10T00:39:36.898Z,807.56
2019-04-10T00:39:42.389Z,807.55
2019-04-10T00:39:48.030Z,807.55
2019-04-10T00:39:53.797Z,807.57
2019-04-10T00:39:59.984Z,807.56
2019-04-10T00:40:05.555Z,807.55
2019-04-10T00:40:11.740Z,807.53
2019-04-10T00:40:17.300Z,807.53
2019-04-10T00:40:23.529Z,807.53
2019-04-10T00:40:29.171Z,807.54
2019-04-10T00:40:35.233Z,807.52
2019-04-10T00:40:40.307Z,807.52
2019-04-10T00:40:46.594Z,807.54
2019-04-10T00:40:52.833Z,807.5
2019-04-10T00:40:59.583Z,807.52
2019-04-10T00:41:05.863Z,807.52
2019-04-10T00:41:12.097Z,807.5
2019-04-10T00:41:17.873Z,807.51
2019-04-10T00:41:23.932Z,807.53
2019-04-10T00:41:28.943Z,807.5
2019-04-10T00:41:35.237Z,807.53
2019-04-10T00:41:41.482Z,807.52
2019-04-10T00:41:48.328Z,807.51
2019-04-10T00:41:53.391Z,807.51
2019-04-10T00:41:59.582Z,807.52
2019-04-10T00:42:05.874Z,807.53
2019-04-10T00:42:11.291Z,807.53
2019-04-10T00:42:16.832Z,807.53
2019-04-10T00:42:23.082Z,807.51
2019-04-10T00:42:30.897Z,807.51
2019-04-10T00:42:37.773Z,807.52
2019-04-10T00:42:43.257Z,807.48
2019-04-10T00:42:49.523Z,807.51
2019-04-10T00:42:58.728Z,807.5
2019-04-10T00:43:04.505Z,807.52
2019-04-10T00:43:11.496Z,807.53
2019-04-10T00:43:18.973Z,807.52
2019-04-10T00:43:24.591Z,807.54
2019-04-10T00:43:29.625Z,807.48
2019-04-10T00:43:35.837Z,807.51
2019-04-10T00:43:44.199Z,807.52
2019-04-10T00:43:50.952Z,807.51
2019-04-10T00:43:57.268Z,807.48
2019-04-10T00:44:03.585Z,807.5
2019-04-10T00:44:11.090Z,807.52
2019-04-10T00:44:17.459Z,807.52
2019-04-10T00:44:23.731Z,807.49
2019-04-10T00:44:30.639Z,807.54
2019-04-10T00:44:36.211Z,807.51
2019-04-10T00:44:41.888Z,807.53
2019-04-10T00:44:48.021Z,807.52
2019-04-10T00:44:54.194Z,807.54
2019-04-10T00:45:00.467Z,807.51
2019-04-10T00:45:06.839Z,807.54
2019-04-10T00:45:13.254Z,807.5
2019-04-10T00:45:19.486Z,807.48
2019-04-10T00:45:25.093Z,807.54
2019-04-10T00:45:30.807Z,807.55
2019-04-10T00:45:36.397Z,807.56
2019-04-10T00:45:42.659Z,807.59
2019-04-10T00:45:49.382Z,807.54
2019-04-10T00:45:55.101Z,807.53
2019-04-10T00:46:00.703Z,807.52
2019-04-10T00:46:08.098Z,807.59
2019-04-10T00:46:13.639Z,807.56
2019-04-10T00:46:19.271Z,807.57
2019-04-10T00:46:26.215Z,807.58
2019-04-10T00:46:32.519Z,807.57
2019-04-10T00:46:38.733Z,807.58
2019-04-10T00:46:44.361Z,807.6
2019-04-10T00:46:51.406Z,807.6
2019-04-10T00:46:58.900Z,807.62
2019-04-10T00:47:04.462Z,807.64
2019-04-10T00:47:09.550Z,807.61
2019-04-10T00:47:15.675Z,807.61
2019-04-10T00:47:22.009Z,807.6
2019-04-10T00:47:27.574Z,807.63
2019-04-10T00:47:33.114Z,807.62
2019-04-10T00:47:40.033Z,807.6
2019-04-10T00:47:46.311Z,807.64
2019-04-10T00:47:53.158Z,807.65
2019-04-10T00:47:58.293Z,807.63
2019-04-10T00:48:05.763Z,807.63
2019-04-10T00:48:11.959Z,807.64
2019-04-10T00:48:17.483Z,807.65
2019-04-10T00:48:22.522Z,807.66
2019-04-10T00:48:30.054Z,807.66
2019-04-10T00:48:36.254Z,807.6
2019-04-10T00:48:41.757Z,807.64
2019-04-10T00:48:46.903Z,807.66
2019-04-10T00:48:53.142Z,807.64
2019-04-10T00:49:00.615Z,807.62
2019-04-10T00:49:05.876Z,807.63
2019-04-10T00:49:11.495Z,807.69
2019-04-10T00:49:17.612Z,807.66
2019-04-10T00:49:23.922Z,807.67
2019-04-10T00:49:29.407Z,807.67
2019-04-10T00:49:35.014Z,807.64
2019-04-10T00:49:40.738Z,807.63
2019-04-10T00:49:46.947Z,807.62
2019-04-10T00:49:52.451Z,807.65
2019-04-10T00:49:58.703Z,807.65
2019-04-10T00:50:04.993Z,807.65
2019-04-10T00:50:11.202Z,807.64
2019-04-10T00:50:16.851Z,807.64
2019-04-10T00:50:23.124Z,807.64
2019-04-10T00:50:28.662Z,807.65
2019-04-10T00:50:34.770Z,807.64
2019-04-10T00:50:40.456Z,807.64
2019-04-10T00:50:47.333Z,807.62
2019-04-10T00:50:52.920Z,807.6
2019-04-10T00:50:59.217Z,807.62
2019-04-10T00:51:04.897Z,807.63
2019-04-10T00:51:11.674Z,807.66
2019-04-10T00:51:17.229Z,807.65
2019-04-10T00:51:23.495Z,807.65
2019-04-10T00:51:29.086Z,807.68
2019-04-10T00:51:35.204Z,807.67
2019-04-10T00:51:40.299Z,807.66
2019-04-10T00:51:47.814Z,807.65
2019-04-10T00:51:53.518Z,807.68
2019-04-10T00:52:00.373Z,807.67
2019-04-10T00:52:05.982Z,807.66
2019-04-10T00:52:12.093Z,807.68
2019-04-10T00:52:17.839Z,807.64
2019-04-10T00:52:24.061Z,807.61
2019-04-10T00:52:30.358Z,807.61
2019-04-10T00:52:36.533Z,807.62
2019-04-10T00:52:42.159Z,807.64
2019-04-10T00:52:48.247Z,807.66
2019-04-10T00:52:53.385Z,807.63
2019-04-10T00:52:59.546Z,807.67
2019-04-10T00:53:05.874Z,807.66
2019-04-10T00:53:13.820Z,807.63
2019-04-10T00:53:19.844Z,807.64
2019-04-10T00:53:27.322Z,807.66
2019-04-10T00:53:33.602Z,807.62
2019-04-10T00:53:39.203Z,807.64
2019-04-10T00:53:46.286Z,807.61
2019-04-10T00:53:53.849Z,807.66
2019-04-10T00:54:00.134Z,807.65
2019-04-10T00:54:05.658Z,807.67
2019-04-10T00:54:11.910Z,807.65
2019-04-10T00:54:18.993Z,807.67
2019-04-10T00:54:25.758Z,807.61
2019-04-10T00:54:30.927Z,807.62
2019-04-10T00:54:37.223Z,807.64
2019-04-10T00:54:43.415Z,807.6
2019-04-10T00:54:48.937Z,807.61
2019-04-10T00:54:53.990Z,807.61
2019-04-10T00:55:00.219Z,807.63
2019-04-10T00:55:06.531Z,807.64
2019-04-10T00:55:12.017Z,807.65
2019-04-10T00:55:17.565Z,807.64
2019-04-10T00:55:23.751Z,807.64
2019-04-10T00:55:32.106Z,807.65
2019-04-10T00:55:38.332Z,807.65
2019-04-10T00:55:44.014Z,807.66
2019-04-10T00:55:50.290Z,807.64
2019-04-10T00:55:57.241Z,807.68
2019-04-10T00:56:03.996Z,807.68
2019-04-10T00:56:10.375Z,807.68
2019-04-10T00:56:16.561Z,807.68
2019-04-10T00:56:22.261Z,807.65
2019-04-10T00:56:28.345Z,807.65
2019-04-10T00:56:33.381Z,807.65
2019-04-10T00:56:39.735Z,807.68
2019-04-10T00:56:48.505Z,807.61
2019-04-10T00:56:54.276Z,807.62
2019-04-10T00:56:59.868Z,807.62
2019-04-10T00:57:06.034Z,807.66
2019-04-10T00:57:12.565Z,807.65
2019-04-10T00:57:18.502Z,807.64
2019-04-10T00:57:25.263Z,807.61
2019-04-10T00:57:31.645Z,807.64
2019-04-10T00:57:37.200Z,807.68
2019-04-10T00:57:42.857Z,807.65
2019-04-10T00:57:48.533Z,807.63
2019-04-10T00:57:56.171Z,807.61
2019-04-10T00:58:02.389Z,807.64
2019-04-10T00:58:08.343Z,807.61
2019-04-10T00:58:14.915Z,807.66
2019-04-10T00:58:22.423Z,807.63
2019-04-10T00:58:28.771Z,807.64
2019-04-10T00:58:35.238Z,807.65
2019-04-10T00:58:42.278Z,807.63
2019-04-10T00:58:49.426Z,807.63
2019-04-10T00:58:56.422Z,807.61
2019-04-10T00:59:02.550Z,807.64
2019-04-10T00:59:10.267Z,807.66
2019-04-10T00:59:16.558Z,807.66
2019-04-10T00:59:22.134Z,807.66
2019-04-10T00:59:28.211Z,807.68
2019-04-10T00:59:34.462Z,807.63
2019-04-10T00:59:40.005Z,807.68
2019-04-10T00:59:45.655Z,807.67
2019-04-10T00:59:51.278Z,807.65
2019-04-10T00:59:58.596Z,807.68
2019-04-10T01:00:05.100Z,807.64
2019-04-10T01:00:10.809Z,807.65
2019-04-10T01:00:16.911Z,807.63
2019-04-10T01:00:25.522Z,807.64
2019-04-10T01:00:31.481Z,807.64
2019-04-10T01:00:41.004Z,807.63
2019-04-10T01:00:50.092Z,807.62
2019-04-10T01:00:57.176Z,807.61
2019-04-10T01:01:02.151Z,807.63
2019-04-10T01:01:10.436Z,807.65
2019-04-10T01:01:16.668Z,807.61
2019-04-10T01:01:22.284Z,807.63
2019-04-10T01:01:28.352Z,807.64
2019-04-10T01:01:34.838Z,807.59
2019-04-10T01:01:42.476Z,807.64
2019-04-10T01:01:48.607Z,807.63
2019-04-10T01:01:54.237Z,807.62
2019-04-10T01:02:00.342Z,807.62
2019-04-10T01:02:06.090Z,807.61
2019-04-10T01:02:12.174Z,807.65
2019-04-10T01:02:17.291Z,807.63
2019-04-10T01:02:23.466Z,807.62
2019-04-10T01:02:29.817Z,807.61
2019-04-10T01:02:36.555Z,807.63
2019-04-10T01:02:41.587Z,807.64
2019-04-10T01:02:47.873Z,807.62
2019-04-10T01:02:54.793Z,807.64
2019-04-10T01:03:00.866Z,807.65
2019-04-10T01:03:05.974Z,807.63
2019-04-10T01:03:13.428Z,807.63
2019-04-10T01:03:19.840Z,807.62
2019-04-10T01:03:27.452Z,807.63
2019-04-10T01:03:35.788Z,807.61
2019-04-10T01:03:43.590Z,807.64
2019-04-10T01:03:54.657Z,807.64
2019-04-10T01:04:02.675Z,807.59
2019-04-10T01:04:10.545Z,807.65
2019-04-10T01:04:16.812Z,807.63
2019-04-10T01:04:23.123Z,807.6
2019-04-10T01:04:30.653Z,807.62
2019-04-10T01:04:36.147Z,807.6
2019-04-10T01:04:42.501Z,807.63
2019-04-10T01:04:48.826Z,807.57
2019-04-10T01:04:55.027Z,807.61
2019-04-10T01:05:00.508Z,807.6
2019-04-10T01:05:06.688Z,807.6
2019-04-10T01:05:13.136Z,807.59
2019-04-10T01:05:19.382Z,807.58
2019-04-10T01:05:24.851Z,807.58
2019-04-10T01:05:29.990Z,807.59
2019-04-10T01:05:36.140Z,807.58
2019-04-10T01:05:43.731Z,807.56
2019-04-10T01:05:49.196Z,807.6
2019-04-10T01:05:54.246Z,807.57
2019-04-10T01:06:00.448Z,807.57
2019-04-10T01:06:06.753Z,807.58
2019-04-10T01:06:12.265Z,807.54
2019-04-10T01:06:18.213Z,807.59
2019-04-10T01:06:24.906Z,807.55
2019-04-10T01:06:33.073Z,807.57
2019-04-10T01:06:38.640Z,807.54
2019-04-10T01:06:44.201Z,807.54
2019-04-10T01:06:50.430Z,807.51
2019-04-10T01:06:56.674Z,807.55
2019-04-10T01:07:02.227Z,807.54
2019-04-10T01:07:07.319Z,807.54
2019-04-10T01:07:13.523Z,807.55
2019-04-10T01:07:32.553Z,807.52
2019-04-10T01:07:50.075Z,807.48
2019-04-10T01:07:57.128Z,807.53
2019-04-10T01:08:04.388Z,807.51
2019-04-10T01:08:12.680Z,807.53
2019-04-10T01:08:18.161Z,807.51
2019-04-10T01:08:23.209Z,807.49
2019-04-10T01:08:29.481Z,807.51
2019-04-10T01:08:35.657Z,807.46
2019-04-10T01:08:42.714Z,807.46
2019-04-10T01:08:48.893Z,807.47
2019-04-10T01:08:55.127Z,807.44
2019-04-10T01:09:01.348Z,807.46
2019-04-10T01:09:07.606Z,807.45
2019-04-10T01:09:13.180Z,807.43
2019-04-10T01:09:19.458Z,807.43
2019-04-10T01:09:25.599Z,807.44
2019-04-10T01:09:31.141Z,807.42
2019-04-10T01:09:36.199Z,807.44
2019-04-10T01:09:42.336Z,807.43
2019-04-10T01:09:48.689Z,807.38
2019-04-10T01:09:54.236Z,807.37
2019-04-10T01:09:59.818Z,807.4
2019-04-10T01:10:06.822Z,807.4
2019-04-10T01:10:14.282Z,807.39
2019-04-10T01:10:19.880Z,807.4
2019-04-10T01:10:24.978Z,807.39
2019-04-10T01:10:32.430Z,807.38
2019-04-10T01:10:39.454Z,807.37
2019-04-10T01:10:45.056Z,807.32
2019-04-10T01:10:50.510Z,807.35
2019-04-10T01:10:56.840Z,807.37
2019-04-10T01:11:03.074Z,807.35
2019-04-10T01:11:09.289Z,807.36
2019-04-10T01:11:14.999Z,807.35
2019-04-10T01:11:23.144Z,807.3
2019-04-10T01:11:28.902Z,807.31
2019-04-10T01:11:35.708Z,807.31
2019-04-10T01:11:41.379Z,807.31
2019-04-10T01:11:48.238Z,807.32
2019-04-10T01:11:55.213Z,807.32
2019-04-10T01:12:00.777Z,807.26
2019-04-10T01:12:07.665Z,807.26
2019-04-10T01:12:13.925Z,807.26
2019-04-10T01:12:19.481Z,807.31
2019-04-10T01:12:25.144Z,807.28
2019-04-10T01:12:30.874Z,807.27
2019-04-10T01:12:37.118Z,807.29
2019-04-10T01:12:43.703Z,807.27
2019-04-10T01:12:49.649Z,807.32
2019-04-10T01:12:55.243Z,807.28
2019-04-10T01:13:02.741Z,807.29
2019-04-10T01:13:09.112Z,807.23
2019-04-10T01:13:14.632Z,807.24
2019-04-10T01:13:20.880Z,807.2
2019-04-10T01:13:27.134Z,807.2
2019-04-10T01:13:33.449Z,807.22
2019-04-10T01:13:39.105Z,807.2
2019-04-10T01:13:45.358Z,807.2
2019-04-10T01:13:54.478Z,807.2
2019-04-10T01:14:01.206Z,807.18
2019-04-10T01:14:07.531Z,807.22
2019-04-10T01:14:13.720Z,807.18
2019-04-10T01:14:19.379Z,807.18
2019-04-10T01:14:25.482Z,807.19
2019-04-10T01:14:30.506Z,807.19
2019-04-10T01:14:36.722Z,807.21
2019-04-10T01:14:42.946Z,807.15
2019-04-10T01:14:48.435Z,807.2
2019-04-10T01:14:54.029Z,807.17
2019-04-10T01:15:00.246Z,807.15
2019-04-10T01:15:08.115Z,807.13
2019-04-10T01:15:14.953Z,807.15
2019-04-10T01:15:20.434Z,807.17
2019-04-10T01:15:26.686Z,807.12
2019-04-10T01:15:32.340Z,807.16
2019-04-10T01:15:39.532Z,807.15
2019-04-10T01:15:45.538Z,807.15
2019-04-10T01:15:53.105Z,807.12
2019-04-10T01:15:58.629Z,807.12
2019-04-10T01:16:04.296Z,807.16
2019-04-10T01:16:11.312Z,807.08
2019-04-10T01:16:20.352Z,807.16
2019-04-10T01:16:25.871Z,807.11
2019-04-10T01:16:31.347Z,807.13
2019-04-10T01:16:37.712Z,807.06
2019-04-10T01:16:43.950Z,807.05
2019-04-10T01:16:50.216Z,807.05
2019-04-10T01:16:55.722Z,807.08
2019-04-10T01:17:02.120Z,807.1
2019-04-10T01:17:09.115Z,807.01
2019-04-10T01:17:15.798Z,807.07
2019-04-10T01:17:20.170Z,807.04
2019-04-10T01:17:26.301Z,807.08
2019-04-10T01:17:34.676Z,807.09
2019-04-10T01:17:40.200Z,807.03
2019-04-10T01:17:46.322Z,807.03
2019-04-10T01:17:52.802Z,807.02
2019-04-10T01:17:58.998Z,807.02
2019-04-10T01:18:04.593Z,807.01
2019-04-10T01:18:10.873Z,807
2019-04-10T01:18:17.160Z,807.06
2019-04-10T01:18:23.373Z,807.06
2019-04-10T01:18:28.977Z,807.05
2019-04-10T01:18:33.966Z,807.01
2019-04-10T01:18:41.564Z,807.03
2019-04-10T01:18:49.262Z,807.02
2019-04-10T01:18:56.137Z,807.04
2019-04-10T01:19:01.714Z,806.99
2019-04-10T01:19:09.894Z,807.06
2019-04-10T01:19:16.280Z,806.98
2019-04-10T01:19:21.845Z,807.04
2019-04-10T01:19:28.078Z,807
2019-04-10T01:19:36.275Z,807
2019-04-10T01:19:42.664Z,806.98
2019-04-10T01:19:48.888Z,807
2019-04-10T01:19:56.418Z,806.93
2019-04-10T01:20:02.160Z,806.97
2019-04-10T01:20:07.910Z,806.92
2019-04-10T01:20:13.325Z,806.96
2019-04-10T01:20:20.429Z,806.96
2019-04-10T01:20:26.625Z,806.94